sensor_id;sensor_type;location;lat;lon;timestamp;temperature;humidity
45983;DHT22;31711;47.158;7.346;2023-06-22T00:01:28;18.90;99.90
45983;DHT22;31711;47.158;7.346;2023-06-22T00:03:54;18.90;99.90
45983;DHT22;31711;47.158;7.346;2023-06-22T00:06:20;18.90;99.90
45983;DHT22;31711;47.158;7.346;2023-06-22T00:08:46;18.80;99.90
45983;DHT22;31711;47.158;7.346;2023-06-22T00:11:12;18.80;99.90
45983;DHT22;31711;47.158;7.346;2023-06-22T00:13:39;18.80;99.90
45983;DHT22;31711;47.158;7.346;2023-06-22T00:16:05;18.80;99.90
45983;DHT22;31711;47.158;7.346;2023-06-22T00:18:31;18.80;99.90
45983;DHT22;31711;47.158;7.346;2023-06-22T00:20:58;18.80;99.90
45983;DHT22;31711;47.158;7.346;2023-06-22T00:23:24;18.70;99.90
45983;DHT22;31711;47.158;7.346;2023-06-22T00:25:50;18.70;99.90
45983;DHT22;31711;47.158;7.346;2023-06-22T00:28:17;18.70;99.90
45983;DHT22;31711;47.158;7.346;2023-06-22T00:30:43;18.70;99.90
45983;DHT22;31711;47.158;7.346;2023-06-22T00:33:09;18.70;99.90
45983;DHT22;31711;47.158;7.346;2023-06-22T00:35:35;18.70;99.90
45983;DHT22;31711;47.158;7.346;2023-06-22T00:38:01;18.70;99.90
45983;DHT22;31711;47.158;7.346;2023-06-22T00:40:32;18.60;99.90
45983;DHT22;31711;47.158;7.346;2023-06-22T00:42:58;18.60;99.90
45983;DHT22;31711;47.158;7.346;2023-06-22T00:45:26;18.50;99.90
45983;DHT22;31711;47.158;7.346;2023-06-22T00:47:54;18.50;99.90
45983;DHT22;31711;47.158;7.346;2023-06-22T00:50:22;18.50;99.90
45983;DHT22;31711;47.158;7.346;2023-06-22T00:52:53;18.40;99.90
45983;DHT22;31711;47.158;7.346;2023-06-22T00:55:22;18.40;99.90
45983;DHT22;31711;47.158;7.346;2023-06-22T00:57:49;18.50;99.90
45983;DHT22;31711;47.158;7.346;2023-06-22T01:00:15;18.50;99.90
45983;DHT22;31711;47.158;7.346;2023-06-22T01:02:46;18.50;99.90
45983;DHT22;31711;47.158;7.346;2023-06-22T01:05:13;18.50;99.90
45983;DHT22;31711;47.158;7.346;2023-06-22T01:07:49;18.50;99.90
45983;DHT22;31711;47.158;7.346;2023-06-22T01:10:43;18.50;99.90
45983;DHT22;31711;47.158;7.346;2023-06-22T01:13:25;18.40;99.90
45983;DHT22;31711;47.158;7.346;2023-06-22T01:16:00;18.30;99.90
45983;DHT22;31711;47.158;7.346;2023-06-22T01:18:31;18.30;99.90
45983;DHT22;31711;47.158;7.346;2023-06-22T01:21:00;18.30;99.90
45983;DHT22;31711;47.158;7.346;2023-06-22T01:26:46;18.30;99.90
45983;DHT22;31711;47.158;7.346;2023-06-22T01:29:21;18.30;99.90
45983;DHT22;31711;47.158;7.346;2023-06-22T01:31:49;18.30;99.90
45983;DHT22;31711;47.158;7.346;2023-06-22T01:34:17;18.30;99.90
45983;DHT22;31711;47.158;7.346;2023-06-22T01:36:43;18.20;99.90
45983;DHT22;31711;47.158;7.346;2023-06-22T01:39:10;18.30;99.90
45983;DHT22;31711;47.158;7.346;2023-06-22T01:41:38;18.20;99.90
45983;DHT22;31711;47.158;7.346;2023-06-22T01:44:05;18.20;99.90
45983;DHT22;31711;47.158;7.346;2023-06-22T01:46:35;18.20;99.90
45983;DHT22;31711;47.158;7.346;2023-06-22T01:49:05;18.20;99.90
45983;DHT22;31711;47.158;7.346;2023-06-22T01:51:32;18.10;99.90
45983;DHT22;31711;47.158;7.346;2023-06-22T01:53:58;18.10;99.90
45983;DHT22;31711;47.158;7.346;2023-06-22T01:56:24;18.10;99.90
45983;DHT22;31711;47.158;7.346;2023-06-22T01:59:00;18.10;99.90
45983;DHT22;31711;47.158;7.346;2023-06-22T02:01:31;18.10;99.90
45983;DHT22;31711;47.158;7.346;2023-06-22T02:04:06;18.10;99.90
45983;DHT22;31711;47.158;7.346;2023-06-22T02:06:36;18.10;99.90
45983;DHT22;31711;47.158;7.346;2023-06-22T02:09:17;18.10;99.90
45983;DHT22;31711;47.158;7.346;2023-06-22T02:11:46;18.00;99.90
45983;DHT22;31711;47.158;7.346;2023-06-22T02:14:14;18.00;99.90
45983;DHT22;31711;47.158;7.346;2023-06-22T02:16:41;17.90;99.90
45983;DHT22;31711;47.158;7.346;2023-06-22T02:19:07;17.90;99.90
45983;DHT22;31711;47.158;7.346;2023-06-22T02:21:34;18.00;99.90
45983;DHT22;31711;47.158;7.346;2023-06-22T02:24:00;18.00;99.90
45983;DHT22;31711;47.158;7.346;2023-06-22T02:26:26;18.00;99.90
45983;DHT22;31711;47.158;7.346;2023-06-22T02:28:53;18.00;99.90
45983;DHT22;31711;47.158;7.346;2023-06-22T02:31:19;18.00;99.90
45983;DHT22;31711;47.158;7.346;2023-06-22T02:33:46;17.90;99.90
45983;DHT22;31711;47.158;7.346;2023-06-22T02:36:12;17.90;99.90
45983;DHT22;31711;47.158;7.346;2023-06-22T02:38:41;17.70;99.90
45983;DHT22;31711;47.158;7.346;2023-06-22T02:41:17;17.70;99.90
45983;DHT22;31711;47.158;7.346;2023-06-22T02:43:47;17.70;99.90
45983;DHT22;31711;47.158;7.346;2023-06-22T02:46:13;17.80;99.90
45983;DHT22;31711;47.158;7.346;2023-06-22T02:48:40;17.80;99.90
45983;DHT22;31711;47.158;7.346;2023-06-22T02:51:06;17.70;99.90
45983;DHT22;31711;47.158;7.346;2023-06-22T02:53:32;17.70;99.90
45983;DHT22;31711;47.158;7.346;2023-06-22T02:55:58;17.70;99.90
45983;DHT22;31711;47.158;7.346;2023-06-22T02:58:27;17.70;99.90
45983;DHT22;31711;47.158;7.346;2023-06-22T03:00:53;17.70;99.90
45983;DHT22;31711;47.158;7.346;2023-06-22T03:03:19;17.60;99.90
45983;DHT22;31711;47.158;7.346;2023-06-22T03:05:45;17.60;99.90
45983;DHT22;31711;47.158;7.346;2023-06-22T03:08:11;17.40;99.90
45983;DHT22;31711;47.158;7.346;2023-06-22T03:10:37;17.30;99.90
45983;DHT22;31711;47.158;7.346;2023-06-22T03:13:03;17.30;99.90
45983;DHT22;31711;47.158;7.346;2023-06-22T03:15:29;17.20;99.90
45983;DHT22;31711;47.158;7.346;2023-06-22T03:17:57;17.30;99.90
45983;DHT22;31711;47.158;7.346;2023-06-22T03:20:23;17.30;99.90
45983;DHT22;31711;47.158;7.346;2023-06-22T03:22:49;17.40;99.90
45983;DHT22;31711;47.158;7.346;2023-06-22T03:25:15;17.40;99.90
45983;DHT22;31711;47.158;7.346;2023-06-22T03:27:42;17.30;99.90
45983;DHT22;31711;47.158;7.346;2023-06-22T03:30:11;17.30;99.90
45983;DHT22;31711;47.158;7.346;2023-06-22T03:32:37;17.30;99.90
45983;DHT22;31711;47.158;7.346;2023-06-22T03:35:03;17.30;99.90
45983;DHT22;31711;47.158;7.346;2023-06-22T03:37:29;17.30;99.90
45983;DHT22;31711;47.158;7.346;2023-06-22T03:39:55;17.30;99.90
45983;DHT22;31711;47.158;7.346;2023-06-22T03:42:21;17.30;99.90
45983;DHT22;31711;47.158;7.346;2023-06-22T03:44:47;17.30;99.90
45983;DHT22;31711;47.158;7.346;2023-06-22T03:47:13;17.20;99.90
45983;DHT22;31711;47.158;7.346;2023-06-22T03:49:39;17.30;99.90
45983;DHT22;31711;47.158;7.346;2023-06-22T03:52:05;17.20;99.90
45983;DHT22;31711;47.158;7.346;2023-06-22T03:54:31;17.30;99.90
45983;DHT22;31711;47.158;7.346;2023-06-22T03:56:58;17.20;99.90
45983;DHT22;31711;47.158;7.346;2023-06-22T03:59:24;17.30;99.90
45983;DHT22;31711;47.158;7.346;2023-06-22T04:01:50;17.30;99.90
45983;DHT22;31711;47.158;7.346;2023-06-22T04:04:17;17.30;99.90
45983;DHT22;31711;47.158;7.346;2023-06-22T04:06:43;17.40;99.90
45983;DHT22;31711;47.158;7.346;2023-06-22T04:09:10;17.40;99.90
45983;DHT22;31711;47.158;7.346;2023-06-22T04:11:36;17.40;99.90
45983;DHT22;31711;47.158;7.346;2023-06-22T04:14:02;17.60;99.90
45983;DHT22;31711;47.158;7.346;2023-06-22T04:16:28;17.70;99.90
45983;DHT22;31711;47.158;7.346;2023-06-22T04:18:54;17.70;99.90
45983;DHT22;31711;47.158;7.346;2023-06-22T04:21:20;17.70;99.90
45983;DHT22;31711;47.158;7.346;2023-06-22T04:23:46;17.80;99.90
45983;DHT22;31711;47.158;7.346;2023-06-22T04:26:13;18.00;99.90
45983;DHT22;31711;47.158;7.346;2023-06-22T04:28:40;18.10;99.90
45983;DHT22;31711;47.158;7.346;2023-06-22T04:31:06;18.20;99.90
45983;DHT22;31711;47.158;7.346;2023-06-22T04:33:32;18.20;99.90
45983;DHT22;31711;47.158;7.346;2023-06-22T04:35:59;18.40;99.90
45983;DHT22;31711;47.158;7.346;2023-06-22T04:38:26;18.50;99.90
45983;DHT22;31711;47.158;7.346;2023-06-22T04:40:53;18.60;99.90
45983;DHT22;31711;47.158;7.346;2023-06-22T04:43:19;18.70;99.90
45983;DHT22;31711;47.158;7.346;2023-06-22T04:45:45;18.70;99.90
45983;DHT22;31711;47.158;7.346;2023-06-22T04:48:11;18.70;99.90
45983;DHT22;31711;47.158;7.346;2023-06-22T04:50:42;18.60;99.90
45983;DHT22;31711;47.158;7.346;2023-06-22T04:53:08;18.70;99.90
45983;DHT22;31711;47.158;7.346;2023-06-22T04:55:35;18.90;99.90
45983;DHT22;31711;47.158;7.346;2023-06-22T04:58:03;19.10;99.90
45983;DHT22;31711;47.158;7.346;2023-06-22T05:00:31;19.20;99.90
45983;DHT22;31711;47.158;7.346;2023-06-22T05:02:57;19.00;99.90
45983;DHT22;31711;47.158;7.346;2023-06-22T05:05:24;18.90;99.90
45983;DHT22;31711;47.158;7.346;2023-06-22T05:07:51;19.10;99.90
45983;DHT22;31711;47.158;7.346;2023-06-22T05:10:19;19.20;99.90
45983;DHT22;31711;47.158;7.346;2023-06-22T05:12:46;19.00;99.90
45983;DHT22;31711;47.158;7.346;2023-06-22T05:15:12;19.20;99.90
45983;DHT22;31711;47.158;7.346;2023-06-22T05:17:38;19.40;99.90
45983;DHT22;31711;47.158;7.346;2023-06-22T05:20:11;19.60;99.90
45983;DHT22;31711;47.158;7.346;2023-06-22T05:22:38;19.70;99.90
45983;DHT22;31711;47.158;7.346;2023-06-22T05:25:08;19.70;99.90
45983;DHT22;31711;47.158;7.346;2023-06-22T05:27:34;20.00;99.90
45983;DHT22;31711;47.158;7.346;2023-06-22T05:30:08;20.10;99.90
45983;DHT22;31711;47.158;7.346;2023-06-22T05:32:35;20.30;99.90
45983;DHT22;31711;47.158;7.346;2023-06-22T05:35:02;20.50;99.90
45983;DHT22;31711;47.158;7.346;2023-06-22T05:37:29;20.70;99.90
45983;DHT22;31711;47.158;7.346;2023-06-22T05:39:55;20.60;99.90
45983;DHT22;31711;47.158;7.346;2023-06-22T05:42:23;20.60;99.90
45983;DHT22;31711;47.158;7.346;2023-06-22T05:44:52;21.00;99.90
45983;DHT22;31711;47.158;7.346;2023-06-22T05:47:18;21.10;99.90
45983;DHT22;31711;47.158;7.346;2023-06-22T05:49:44;21.30;99.90
45983;DHT22;31711;47.158;7.346;2023-06-22T05:52:11;21.30;99.90
45983;DHT22;31711;47.158;7.346;2023-06-22T05:54:37;21.30;99.90
45983;DHT22;31711;47.158;7.346;2023-06-22T05:57:04;21.40;99.90
45983;DHT22;31711;47.158;7.346;2023-06-22T05:59:30;21.30;99.90
45983;DHT22;31711;47.158;7.346;2023-06-22T06:01:56;21.10;99.90
45983;DHT22;31711;47.158;7.346;2023-06-22T06:04:22;20.90;99.90
45983;DHT22;31711;47.158;7.346;2023-06-22T06:06:48;20.90;99.90
45983;DHT22;31711;47.158;7.346;2023-06-22T06:09:14;20.70;99.90
45983;DHT22;31711;47.158;7.346;2023-06-22T06:11:40;20.70;99.90
45983;DHT22;31711;47.158;7.346;2023-06-22T06:14:06;20.60;99.90
45983;DHT22;31711;47.158;7.346;2023-06-22T06:16:32;20.70;99.90
45983;DHT22;31711;47.158;7.346;2023-06-22T06:18:58;20.80;99.90
45983;DHT22;31711;47.158;7.346;2023-06-22T06:21:24;20.90;99.90
45983;DHT22;31711;47.158;7.346;2023-06-22T06:23:50;20.80;99.90
45983;DHT22;31711;47.158;7.346;2023-06-22T06:26:16;20.90;99.90
45983;DHT22;31711;47.158;7.346;2023-06-22T06:28:43;20.80;99.90
45983;DHT22;31711;47.158;7.346;2023-06-22T06:31:09;20.90;99.90
45983;DHT22;31711;47.158;7.346;2023-06-22T06:33:36;21.00;99.90
45983;DHT22;31711;47.158;7.346;2023-06-22T06:36:02;21.10;99.90
45983;DHT22;31711;47.158;7.346;2023-06-22T06:38:31;21.20;99.90
45983;DHT22;31711;47.158;7.346;2023-06-22T06:40:58;21.30;99.90
45983;DHT22;31711;47.158;7.346;2023-06-22T06:43:24;21.40;99.90
45983;DHT22;31711;47.158;7.346;2023-06-22T06:45:50;21.70;99.90
45983;DHT22;31711;47.158;7.346;2023-06-22T06:48:16;21.90;99.90
45983;DHT22;31711;47.158;7.346;2023-06-22T06:50:43;22.00;99.90
45983;DHT22;31711;47.158;7.346;2023-06-22T06:53:10;22.00;99.90
45983;DHT22;31711;47.158;7.346;2023-06-22T06:55:36;22.40;99.90
45983;DHT22;31711;47.158;7.346;2023-06-22T06:58:02;22.40;99.90
45983;DHT22;31711;47.158;7.346;2023-06-22T07:00:29;22.50;99.90
45983;DHT22;31711;47.158;7.346;2023-06-22T07:02:55;22.50;99.90
45983;DHT22;31711;47.158;7.346;2023-06-22T07:05:21;22.70;99.90
45983;DHT22;31711;47.158;7.346;2023-06-22T07:07:47;22.70;99.90
45983;DHT22;31711;47.158;7.346;2023-06-22T07:10:13;23.00;99.90
45983;DHT22;31711;47.158;7.346;2023-06-22T07:12:41;23.20;99.90
45983;DHT22;31711;47.158;7.346;2023-06-22T07:15:08;23.30;99.90
45983;DHT22;31711;47.158;7.346;2023-06-22T07:17:35;23.40;99.90
45983;DHT22;31711;47.158;7.346;2023-06-22T07:20:02;23.10;99.90
45983;DHT22;31711;47.158;7.346;2023-06-22T07:22:31;22.80;99.90
45983;DHT22;31711;47.158;7.346;2023-06-22T07:24:57;22.90;99.90
45983;DHT22;31711;47.158;7.346;2023-06-22T07:27:25;23.00;99.90
45983;DHT22;31711;47.158;7.346;2023-06-22T07:29:51;22.90;99.90
45983;DHT22;31711;47.158;7.346;2023-06-22T07:32:17;22.90;99.90
45983;DHT22;31711;47.158;7.346;2023-06-22T07:34:43;23.00;99.90
45983;DHT22;31711;47.158;7.346;2023-06-22T07:37:09;23.10;99.90
45983;DHT22;31711;47.158;7.346;2023-06-22T07:39:35;23.10;99.90
45983;DHT22;31711;47.158;7.346;2023-06-22T07:42:03;23.20;99.90
45983;DHT22;31711;47.158;7.346;2023-06-22T07:44:29;23.20;99.90
45983;DHT22;31711;47.158;7.346;2023-06-22T07:46:55;23.40;99.90
45983;DHT22;31711;47.158;7.346;2023-06-22T07:49:21;23.30;99.90
45983;DHT22;31711;47.158;7.346;2023-06-22T07:51:47;23.60;99.90
45983;DHT22;31711;47.158;7.346;2023-06-22T07:54:13;23.70;99.90
45983;DHT22;31711;47.158;7.346;2023-06-22T07:56:41;23.80;99.90
45983;DHT22;31711;47.158;7.346;2023-06-22T07:59:07;23.80;99.90
45983;DHT22;31711;47.158;7.346;2023-06-22T08:01:33;24.00;99.90
45983;DHT22;31711;47.158;7.346;2023-06-22T08:03:59;24.00;99.90
45983;DHT22;31711;47.158;7.346;2023-06-22T08:06:25;24.20;99.90
45983;DHT22;31711;47.158;7.346;2023-06-22T08:08:51;24.20;99.90
45983;DHT22;31711;47.158;7.346;2023-06-22T08:11:18;24.30;99.90
45983;DHT22;31711;47.158;7.346;2023-06-22T08:13:44;24.90;99.90
45983;DHT22;31711;47.158;7.346;2023-06-22T08:16:10;25.10;99.90
45983;DHT22;31711;47.158;7.346;2023-06-22T08:18:36;25.00;99.90
45983;DHT22;31711;47.158;7.346;2023-06-22T08:21:02;24.80;99.90
45983;DHT22;31711;47.158;7.346;2023-06-22T08:23:28;25.00;99.90
45983;DHT22;31711;47.158;7.346;2023-06-22T08:25:54;25.10;99.90
45983;DHT22;31711;47.158;7.346;2023-06-22T08:28:20;25.10;99.90
45983;DHT22;31711;47.158;7.346;2023-06-22T08:30:46;25.20;99.90
45983;DHT22;31711;47.158;7.346;2023-06-22T08:33:12;25.10;99.90
45983;DHT22;31711;47.158;7.346;2023-06-22T08:35:38;24.50;99.90
45983;DHT22;31711;47.158;7.346;2023-06-22T08:38:04;25.20;99.90
45983;DHT22;31711;47.158;7.346;2023-06-22T08:40:30;25.40;99.90
45983;DHT22;31711;47.158;7.346;2023-06-22T08:42:56;25.10;99.90
45983;DHT22;31711;47.158;7.346;2023-06-22T08:45:22;24.90;99.90
45983;DHT22;31711;47.158;7.346;2023-06-22T08:47:48;24.90;99.90
45983;DHT22;31711;47.158;7.346;2023-06-22T08:50:14;24.70;99.90
45983;DHT22;31711;47.158;7.346;2023-06-22T08:52:40;24.80;99.90
45983;DHT22;31711;47.158;7.346;2023-06-22T08:55:11;24.80;99.90
45983;DHT22;31711;47.158;7.346;2023-06-22T08:57:37;24.90;99.90
45983;DHT22;31711;47.158;7.346;2023-06-22T09:00:06;25.30;99.90
45983;DHT22;31711;47.158;7.346;2023-06-22T09:02:37;25.60;99.90
45983;DHT22;31711;47.158;7.346;2023-06-22T09:05:04;25.90;99.90
45983;DHT22;31711;47.158;7.346;2023-06-22T09:07:30;25.60;99.90
45983;DHT22;31711;47.158;7.346;2023-06-22T09:09:56;25.90;99.90
45983;DHT22;31711;47.158;7.346;2023-06-22T09:12:22;26.00;99.90
45983;DHT22;31711;47.158;7.346;2023-06-22T09:14:53;26.10;99.90
45983;DHT22;31711;47.158;7.346;2023-06-22T09:17:19;26.20;99.90
45983;DHT22;31711;47.158;7.346;2023-06-22T09:19:45;26.30;99.90
45983;DHT22;31711;47.158;7.346;2023-06-22T09:22:11;26.40;99.90
45983;DHT22;31711;47.158;7.346;2023-06-22T09:24:37;26.20;99.90
45983;DHT22;31711;47.158;7.346;2023-06-22T09:27:04;26.00;99.90
45983;DHT22;31711;47.158;7.346;2023-06-22T09:29:30;26.20;99.90
45983;DHT22;31711;47.158;7.346;2023-06-22T09:31:59;26.20;99.90
45983;DHT22;31711;47.158;7.346;2023-06-22T09:34:25;26.60;99.90
45983;DHT22;31711;47.158;7.346;2023-06-22T09:36:51;26.80;99.90
45983;DHT22;31711;47.158;7.346;2023-06-22T09:39:20;26.90;99.90
45983;DHT22;31711;47.158;7.346;2023-06-22T09:41:46;26.80;99.90
45983;DHT22;31711;47.158;7.346;2023-06-22T09:44:12;26.80;99.90
45983;DHT22;31711;47.158;7.346;2023-06-22T09:46:38;26.30;99.90
45983;DHT22;31711;47.158;7.346;2023-06-22T09:49:04;25.90;99.90
45983;DHT22;31711;47.158;7.346;2023-06-22T09:51:30;25.90;99.90
45983;DHT22;31711;47.158;7.346;2023-06-22T09:53:56;25.90;99.90
45983;DHT22;31711;47.158;7.346;2023-06-22T09:56:22;26.00;99.90
45983;DHT22;31711;47.158;7.346;2023-06-22T09:58:48;26.20;99.90
45983;DHT22;31711;47.158;7.346;2023-06-22T10:01:16;26.00;99.90
45983;DHT22;31711;47.158;7.346;2023-06-22T10:03:42;26.30;99.90
45983;DHT22;31711;47.158;7.346;2023-06-22T10:06:08;26.50;99.90
45983;DHT22;31711;47.158;7.346;2023-06-22T10:08:37;25.90;99.90
45983;DHT22;31711;47.158;7.346;2023-06-22T10:11:04;25.70;99.90
45983;DHT22;31711;47.158;7.346;2023-06-22T10:13:30;25.70;99.90
45983;DHT22;31711;47.158;7.346;2023-06-22T10:15:56;25.90;99.90
45983;DHT22;31711;47.158;7.346;2023-06-22T10:18:22;25.80;99.90
45983;DHT22;31711;47.158;7.346;2023-06-22T10:20:49;25.70;99.90
45983;DHT22;31711;47.158;7.346;2023-06-22T10:23:19;25.70;99.90
45983;DHT22;31711;47.158;7.346;2023-06-22T10:25:45;25.70;99.90
45983;DHT22;31711;47.158;7.346;2023-06-22T10:28:12;25.30;99.90
45983;DHT22;31711;47.158;7.346;2023-06-22T10:30:39;25.30;99.90
45983;DHT22;31711;47.158;7.346;2023-06-22T10:33:07;25.50;99.90
45983;DHT22;31711;47.158;7.346;2023-06-22T10:35:34;25.60;99.90
45983;DHT22;31711;47.158;7.346;2023-06-22T10:38:00;25.60;99.90
45983;DHT22;31711;47.158;7.346;2023-06-22T10:40:26;25.50;99.90
45983;DHT22;31711;47.158;7.346;2023-06-22T10:42:52;25.70;99.90
45983;DHT22;31711;47.158;7.346;2023-06-22T10:45:18;25.70;99.90
45983;DHT22;31711;47.158;7.346;2023-06-22T10:47:44;25.70;99.90
45983;DHT22;31711;47.158;7.346;2023-06-22T10:50:10;25.50;99.90
45983;DHT22;31711;47.158;7.346;2023-06-22T10:52:36;25.40;99.90
45983;DHT22;31711;47.158;7.346;2023-06-22T10:55:02;25.10;99.90
45983;DHT22;31711;47.158;7.346;2023-06-22T10:57:28;25.00;99.90
45983;DHT22;31711;47.158;7.346;2023-06-22T10:59:54;24.80;99.90
45983;DHT22;31711;47.158;7.346;2023-06-22T11:02:20;24.90;99.90
45983;DHT22;31711;47.158;7.346;2023-06-22T11:04:46;24.90;99.90
45983;DHT22;31711;47.158;7.346;2023-06-22T11:07:13;24.70;99.90
45983;DHT22;31711;47.158;7.346;2023-06-22T11:09:39;24.70;99.90
45983;DHT22;31711;47.158;7.346;2023-06-22T11:12:06;24.70;99.90
45983;DHT22;31711;47.158;7.346;2023-06-22T11:14:32;24.80;99.90
45983;DHT22;31711;47.158;7.346;2023-06-22T11:16:59;25.30;99.90
45983;DHT22;31711;47.158;7.346;2023-06-22T11:19:25;25.80;99.90
45983;DHT22;31711;47.158;7.346;2023-06-22T11:21:51;25.90;99.90
45983;DHT22;31711;47.158;7.346;2023-06-22T11:24:18;25.80;99.90
45983;DHT22;31711;47.158;7.346;2023-06-22T11:26:44;25.60;99.90
45983;DHT22;31711;47.158;7.346;2023-06-22T11:29:10;25.40;99.90
45983;DHT22;31711;47.158;7.346;2023-06-22T11:31:36;25.40;99.90
45983;DHT22;31711;47.158;7.346;2023-06-22T11:34:02;25.60;99.90
45983;DHT22;31711;47.158;7.346;2023-06-22T11:36:29;25.50;99.90
45983;DHT22;31711;47.158;7.346;2023-06-22T11:38:58;25.50;99.90
45983;DHT22;31711;47.158;7.346;2023-06-22T11:41:24;25.80;99.90
45983;DHT22;31711;47.158;7.346;2023-06-22T11:43:50;26.30;99.90
45983;DHT22;31711;47.158;7.346;2023-06-22T11:46:17;26.60;99.90
45983;DHT22;31711;47.158;7.346;2023-06-22T11:48:42;26.80;99.90
45983;DHT22;31711;47.158;7.346;2023-06-22T11:51:09;26.80;99.90
45983;DHT22;31711;47.158;7.346;2023-06-22T11:53:35;26.70;99.90
45983;DHT22;31711;47.158;7.346;2023-06-22T11:56:01;26.50;99.90
45983;DHT22;31711;47.158;7.346;2023-06-22T11:58:27;26.30;99.90
45983;DHT22;31711;47.158;7.346;2023-06-22T12:00:54;26.40;99.90
45983;DHT22;31711;47.158;7.346;2023-06-22T12:03:20;26.50;99.90
45983;DHT22;31711;47.158;7.346;2023-06-22T12:05:50;26.70;99.90
45983;DHT22;31711;47.158;7.346;2023-06-22T12:08:18;27.00;99.90
45983;DHT22;31711;47.158;7.346;2023-06-22T12:10:44;27.20;99.90
45983;DHT22;31711;47.158;7.346;2023-06-22T12:13:10;26.90;99.90
45983;DHT22;31711;47.158;7.346;2023-06-22T12:15:36;26.80;99.90
45983;DHT22;31711;47.158;7.346;2023-06-22T12:18:02;27.10;99.90
45983;DHT22;31711;47.158;7.346;2023-06-22T12:20:28;27.30;99.90
45983;DHT22;31711;47.158;7.346;2023-06-22T12:22:54;27.60;99.90
45983;DHT22;31711;47.158;7.346;2023-06-22T12:25:22;27.30;99.90
45983;DHT22;31711;47.158;7.346;2023-06-22T12:27:48;27.30;99.90
45983;DHT22;31711;47.158;7.346;2023-06-22T12:30:16;27.50;99.90
45983;DHT22;31711;47.158;7.346;2023-06-22T12:32:42;27.60;99.90
45983;DHT22;31711;47.158;7.346;2023-06-22T12:35:10;27.30;99.90
45983;DHT22;31711;47.158;7.346;2023-06-22T12:37:42;27.30;99.90
45983;DHT22;31711;47.158;7.346;2023-06-22T12:40:09;27.30;99.90
45983;DHT22;31711;47.158;7.346;2023-06-22T12:42:35;27.50;99.90
45983;DHT22;31711;47.158;7.346;2023-06-22T12:45:01;27.50;99.90
45983;DHT22;31711;47.158;7.346;2023-06-22T12:47:27;27.20;99.90
45983;DHT22;31711;47.158;7.346;2023-06-22T12:49:53;26.50;99.90
45983;DHT22;31711;47.158;7.346;2023-06-22T12:52:19;26.10;99.90
45983;DHT22;31711;47.158;7.346;2023-06-22T12:54:45;25.60;99.90
45983;DHT22;31711;47.158;7.346;2023-06-22T12:57:11;25.20;99.90
45983;DHT22;31711;47.158;7.346;2023-06-22T12:59:37;24.90;99.90
45983;DHT22;31711;47.158;7.346;2023-06-22T13:02:03;24.80;99.90
45983;DHT22;31711;47.158;7.346;2023-06-22T13:04:29;24.50;99.90
45983;DHT22;31711;47.158;7.346;2023-06-22T13:06:55;24.30;99.90
45983;DHT22;31711;47.158;7.346;2023-06-22T13:09:21;24.20;99.90
45983;DHT22;31711;47.158;7.346;2023-06-22T13:11:47;24.10;99.90
45983;DHT22;31711;47.158;7.346;2023-06-22T13:14:13;24.20;99.90
45983;DHT22;31711;47.158;7.346;2023-06-22T13:16:39;24.40;99.90
45983;DHT22;31711;47.158;7.346;2023-06-22T13:19:05;24.70;99.90
45983;DHT22;31711;47.158;7.346;2023-06-22T13:21:31;24.70;99.90
45983;DHT22;31711;47.158;7.346;2023-06-22T13:23:58;25.10;99.90
45983;DHT22;31711;47.158;7.346;2023-06-22T13:26:24;25.20;99.90
45983;DHT22;31711;47.158;7.346;2023-06-22T13:28:50;25.20;99.90
45983;DHT22;31711;47.158;7.346;2023-06-22T13:31:16;24.90;99.90
45983;DHT22;31711;47.158;7.346;2023-06-22T13:33:42;24.70;99.90
45983;DHT22;31711;47.158;7.346;2023-06-22T13:36:10;24.40;99.90
45983;DHT22;31711;47.158;7.346;2023-06-22T13:38:36;24.70;99.90
45983;DHT22;31711;47.158;7.346;2023-06-22T13:41:05;24.90;99.90
45983;DHT22;31711;47.158;7.346;2023-06-22T13:43:31;25.20;99.90
45983;DHT22;31711;47.158;7.346;2023-06-22T13:45:57;25.40;99.90
45983;DHT22;31711;47.158;7.346;2023-06-22T13:48:24;25.50;99.90
45983;DHT22;31711;47.158;7.346;2023-06-22T13:50:52;25.50;99.90
45983;DHT22;31711;47.158;7.346;2023-06-22T13:53:18;25.60;99.90
45983;DHT22;31711;47.158;7.346;2023-06-22T13:55:44;25.90;99.90
45983;DHT22;31711;47.158;7.346;2023-06-22T13:58:10;26.10;99.90
45983;DHT22;31711;47.158;7.346;2023-06-22T14:00:36;25.90;99.90
45983;DHT22;31711;47.158;7.346;2023-06-22T14:03:02;25.80;99.90
45983;DHT22;31711;47.158;7.346;2023-06-22T14:05:28;25.70;99.90
45983;DHT22;31711;47.158;7.346;2023-06-22T14:07:54;26.10;99.90
45983;DHT22;31711;47.158;7.346;2023-06-22T14:10:20;26.50;99.90
45983;DHT22;31711;47.158;7.346;2023-06-22T14:12:46;26.30;99.90
45983;DHT22;31711;47.158;7.346;2023-06-22T14:15:12;26.10;99.90
45983;DHT22;31711;47.158;7.346;2023-06-22T14:17:38;26.10;99.90
45983;DHT22;31711;47.158;7.346;2023-06-22T14:20:05;26.30;99.90
45983;DHT22;31711;47.158;7.346;2023-06-22T14:22:33;26.50;99.90
45983;DHT22;31711;47.158;7.346;2023-06-22T14:25:01;26.60;99.90
45983;DHT22;31711;47.158;7.346;2023-06-22T14:27:27;26.50;99.90
45983;DHT22;31711;47.158;7.346;2023-06-22T14:29:53;26.60;99.90
45983;DHT22;31711;47.158;7.346;2023-06-22T14:32:19;26.90;99.90
45983;DHT22;31711;47.158;7.346;2023-06-22T14:34:45;27.10;99.90
45983;DHT22;31711;47.158;7.346;2023-06-22T14:37:11;27.20;99.90
45983;DHT22;31711;47.158;7.346;2023-06-22T14:39:38;27.10;99.90
45983;DHT22;31711;47.158;7.346;2023-06-22T14:42:08;26.70;99.90
45983;DHT22;31711;47.158;7.346;2023-06-22T14:44:35;26.20;99.90
45983;DHT22;31711;47.158;7.346;2023-06-22T14:47:01;26.10;99.90
45983;DHT22;31711;47.158;7.346;2023-06-22T14:49:27;26.00;99.90
45983;DHT22;31711;47.158;7.346;2023-06-22T14:56:54;25.60;99.90
45983;DHT22;31711;47.158;7.346;2023-06-22T14:59:20;25.10;99.90
45983;DHT22;31711;47.158;7.346;2023-06-22T15:01:46;24.60;99.90
45983;DHT22;31711;47.158;7.346;2023-06-22T15:04:12;24.70;99.90
45983;DHT22;31711;47.158;7.346;2023-06-22T15:06:37;24.80;99.90
45983;DHT22;31711;47.158;7.346;2023-06-22T15:09:03;24.80;99.90
45983;DHT22;31711;47.158;7.346;2023-06-22T15:11:29;24.60;99.90
45983;DHT22;31711;47.158;7.346;2023-06-22T15:13:58;24.30;99.90
45983;DHT22;31711;47.158;7.346;2023-06-22T15:16:25;24.00;99.90
45983;DHT22;31711;47.158;7.346;2023-06-22T15:18:51;23.50;99.90
45983;DHT22;31711;47.158;7.346;2023-06-22T15:21:17;23.20;99.90
45983;DHT22;31711;47.158;7.346;2023-06-22T15:23:43;22.90;99.90
45983;DHT22;31711;47.158;7.346;2023-06-22T15:26:09;22.90;99.90
45983;DHT22;31711;47.158;7.346;2023-06-22T15:28:35;22.90;99.90
45983;DHT22;31711;47.158;7.346;2023-06-22T15:31:02;23.10;99.90
45983;DHT22;31711;47.158;7.346;2023-06-22T15:33:28;23.20;99.90
45983;DHT22;31711;47.158;7.346;2023-06-22T15:35:55;23.40;99.90